sensor_id;sensor_type;location;lat;lon;timestamp;temperature;humidity
30678;DHT22;17437;47.188;8.896;2023-10-19T00:00:14;9.60;99.90
30678;DHT22;17437;47.188;8.896;2023-10-19T00:02:53;9.70;99.90
30678;DHT22;17437;47.188;8.896;2023-10-19T00:05:26;9.70;99.90
30678;DHT22;17437;47.188;8.896;2023-10-19T00:08:00;9.80;99.90
30678;DHT22;17437;47.188;8.896;2023-10-19T00:10:34;9.80;99.90
30678;DHT22;17437;47.188;8.896;2023-10-19T00:13:08;9.90;99.90
30678;DHT22;17437;47.188;8.896;2023-10-19T00:15:43;9.80;99.90
30678;DHT22;17437;47.188;8.896;2023-10-19T00:18:19;9.80;99.90
30678;DHT22;17437;47.188;8.896;2023-10-19T00:20:54;9.70;99.90
30678;DHT22;17437;47.188;8.896;2023-10-19T00:23:30;9.70;99.90
30678;DHT22;17437;47.188;8.896;2023-10-19T00:26:04;9.70;99.90
30678;DHT22;17437;47.188;8.896;2023-10-19T00:28:38;9.80;99.90
30678;DHT22;17437;47.188;8.896;2023-10-19T00:31:10;9.80;99.90
30678;DHT22;17437;47.188;8.896;2023-10-19T00:33:45;9.80;99.90
30678;DHT22;17437;47.188;8.896;2023-10-19T00:36:17;9.80;99.90
30678;DHT22;17437;47.188;8.896;2023-10-19T00:38:52;9.80;99.90
30678;DHT22;17437;47.188;8.896;2023-10-19T00:41:26;9.80;99.90
30678;DHT22;17437;47.188;8.896;2023-10-19T00:44:01;9.80;99.90
30678;DHT22;17437;47.188;8.896;2023-10-19T00:46:39;9.90;99.90
30678;DHT22;17437;47.188;8.896;2023-10-19T00:49:15;9.90;99.90
30678;DHT22;17437;47.188;8.896;2023-10-19T00:51:51;9.80;99.90
30678;DHT22;17437;47.188;8.896;2023-10-19T00:54:32;9.90;99.90
30678;DHT22;17437;47.188;8.896;2023-10-19T00:57:06;9.80;99.90
30678;DHT22;17437;47.188;8.896;2023-10-19T00:59:45;9.80;99.90
30678;DHT22;17437;47.188;8.896;2023-10-19T01:02:19;9.80;99.90
30678;DHT22;17437;47.188;8.896;2023-10-19T01:04:54;9.80;99.90
30678;DHT22;17437;47.188;8.896;2023-10-19T01:07:30;9.80;99.90
30678;DHT22;17437;47.188;8.896;2023-10-19T01:10:06;9.80;99.90
30678;DHT22;17437;47.188;8.896;2023-10-19T01:12:39;9.80;99.90
30678;DHT22;17437;47.188;8.896;2023-10-19T01:15:13;9.80;99.90
30678;DHT22;17437;47.188;8.896;2023-10-19T01:17:49;9.80;99.90
30678;DHT22;17437;47.188;8.896;2023-10-19T01:20:26;9.90;99.90
30678;DHT22;17437;47.188;8.896;2023-10-19T01:23:08;9.90;99.90
30678;DHT22;17437;47.188;8.896;2023-10-19T01:25:49;9.80;99.90
30678;DHT22;17437;47.188;8.896;2023-10-19T01:28:24;9.80;99.90
30678;DHT22;17437;47.188;8.896;2023-10-19T01:30:58;9.70;99.90
30678;DHT22;17437;47.188;8.896;2023-10-19T01:33:32;9.70;99.90
30678;DHT22;17437;47.188;8.896;2023-10-19T01:36:06;9.70;99.90
30678;DHT22;17437;47.188;8.896;2023-10-19T01:38:47;9.70;99.90
30678;DHT22;17437;47.188;8.896;2023-10-19T01:41:20;9.80;99.90
30678;DHT22;17437;47.188;8.896;2023-10-19T01:43:53;9.70;99.90
30678;DHT22;17437;47.188;8.896;2023-10-19T01:46:28;9.70;99.90
30678;DHT22;17437;47.188;8.896;2023-10-19T01:49:04;9.70;99.90
30678;DHT22;17437;47.188;8.896;2023-10-19T01:51:39;9.70;99.90
30678;DHT22;17437;47.188;8.896;2023-10-19T01:54:14;9.70;99.90
30678;DHT22;17437;47.188;8.896;2023-10-19T01:56:47;9.70;99.90
30678;DHT22;17437;47.188;8.896;2023-10-19T01:59:24;9.70;99.90
30678;DHT22;17437;47.188;8.896;2023-10-19T02:01:58;9.70;99.90
30678;DHT22;17437;47.188;8.896;2023-10-19T02:04:30;9.70;99.90
30678;DHT22;17437;47.188;8.896;2023-10-19T02:07:06;9.70;99.90
30678;DHT22;17437;47.188;8.896;2023-10-19T02:09:41;9.60;99.90
30678;DHT22;17437;47.188;8.896;2023-10-19T02:12:16;9.70;99.90
30678;DHT22;17437;47.188;8.896;2023-10-19T02:14:54;9.70;99.90
30678;DHT22;17437;47.188;8.896;2023-10-19T02:17:26;9.70;99.90
30678;DHT22;17437;47.188;8.896;2023-10-19T02:20:01;9.70;99.90
30678;DHT22;17437;47.188;8.896;2023-10-19T02:22:44;9.70;99.90
30678;DHT22;17437;47.188;8.896;2023-10-19T02:25:19;9.70;99.90
30678;DHT22;17437;47.188;8.896;2023-10-19T02:27:52;9.70;99.90
30678;DHT22;17437;47.188;8.896;2023-10-19T02:30:25;9.70;99.90
30678;DHT22;17437;47.188;8.896;2023-10-19T02:32:59;9.70;99.90
30678;DHT22;17437;47.188;8.896;2023-10-19T02:35:33;9.70;99.90
30678;DHT22;17437;47.188;8.896;2023-10-19T02:38:06;9.70;99.90
30678;DHT22;17437;47.188;8.896;2023-10-19T02:40:38;9.80;99.90
30678;DHT22;17437;47.188;8.896;2023-10-19T02:43:10;9.80;99.90
30678;DHT22;17437;47.188;8.896;2023-10-19T02:45:44;9.80;99.90
30678;DHT22;17437;47.188;8.896;2023-10-19T02:48:19;9.80;99.90
30678;DHT22;17437;47.188;8.896;2023-10-19T02:50:51;9.80;99.90
30678;DHT22;17437;47.188;8.896;2023-10-19T02:53:25;9.80;99.90
30678;DHT22;17437;47.188;8.896;2023-10-19T02:55:58;9.70;99.90
30678;DHT22;17437;47.188;8.896;2023-10-19T02:58:43;9.80;99.90
30678;DHT22;17437;47.188;8.896;2023-10-19T03:01:19;9.80;99.90
30678;DHT22;17437;47.188;8.896;2023-10-19T03:03:54;9.70;99.90
30678;DHT22;17437;47.188;8.896;2023-10-19T03:06:28;9.60;99.90
30678;DHT22;17437;47.188;8.896;2023-10-19T03:09:06;9.70;99.90
30678;DHT22;17437;47.188;8.896;2023-10-19T03:11:48;9.70;99.90
30678;DHT22;17437;47.188;8.896;2023-10-19T03:14:24;9.70;99.90
30678;DHT22;17437;47.188;8.896;2023-10-19T03:16:57;9.80;99.90
30678;DHT22;17437;47.188;8.896;2023-10-19T03:19:30;10.00;99.90
30678;DHT22;17437;47.188;8.896;2023-10-19T03:22:02;10.10;99.90
30678;DHT22;17437;47.188;8.896;2023-10-19T03:24:36;10.00;99.90
30678;DHT22;17437;47.188;8.896;2023-10-19T03:27:13;10.00;99.90
30678;DHT22;17437;47.188;8.896;2023-10-19T03:29:48;9.90;99.90
30678;DHT22;17437;47.188;8.896;2023-10-19T03:32:25;9.90;99.90
30678;DHT22;17437;47.188;8.896;2023-10-19T03:34:58;9.90;99.90
30678;DHT22;17437;47.188;8.896;2023-10-19T03:37:32;9.90;99.90
30678;DHT22;17437;47.188;8.896;2023-10-19T03:40:08;9.90;99.90
30678;DHT22;17437;47.188;8.896;2023-10-19T03:42:42;10.00;99.90
30678;DHT22;17437;47.188;8.896;2023-10-19T03:45:15;9.90;99.90
30678;DHT22;17437;47.188;8.896;2023-10-19T03:50:33;9.90;99.90
30678;DHT22;17437;47.188;8.896;2023-10-19T03:53:06;9.90;99.90
30678;DHT22;17437;47.188;8.896;2023-10-19T03:55:40;9.90;99.90
30678;DHT22;17437;47.188;8.896;2023-10-19T03:58:14;9.90;99.90
30678;DHT22;17437;47.188;8.896;2023-10-19T04:00:49;9.90;99.90
30678;DHT22;17437;47.188;8.896;2023-10-19T04:03:21;9.80;99.90
30678;DHT22;17437;47.188;8.896;2023-10-19T04:05:55;9.80;99.90
30678;DHT22;17437;47.188;8.896;2023-10-19T04:08:28;9.80;99.90
30678;DHT22;17437;47.188;8.896;2023-10-19T04:11:02;9.80;99.90
30678;DHT22;17437;47.188;8.896;2023-10-19T04:13:44;9.80;99.90
30678;DHT22;17437;47.188;8.896;2023-10-19T04:16:16;9.80;99.90
30678;DHT22;17437;47.188;8.896;2023-10-19T04:18:49;9.90;99.90
30678;DHT22;17437;47.188;8.896;2023-10-19T04:21:21;9.90;99.90
30678;DHT22;17437;47.188;8.896;2023-10-19T04:23:53;9.90;99.90
30678;DHT22;17437;47.188;8.896;2023-10-19T04:26:27;10.00;99.90
30678;DHT22;17437;47.188;8.896;2023-10-19T04:28:59;10.00;99.90
30678;DHT22;17437;47.188;8.896;2023-10-19T04:31:32;10.00;99.90
30678;DHT22;17437;47.188;8.896;2023-10-19T04:34:06;10.10;99.90
30678;DHT22;17437;47.188;8.896;2023-10-19T04:36:40;10.10;99.90
30678;DHT22;17437;47.188;8.896;2023-10-19T04:39:14;10.10;99.90
30678;DHT22;17437;47.188;8.896;2023-10-19T04:41:48;10.10;99.90
30678;DHT22;17437;47.188;8.896;2023-10-19T04:44:20;10.10;99.90
30678;DHT22;17437;47.188;8.896;2023-10-19T04:46:53;10.20;99.90
30678;DHT22;17437;47.188;8.896;2023-10-19T04:49:28;10.20;99.90
30678;DHT22;17437;47.188;8.896;2023-10-19T04:52:00;10.20;99.90
30678;DHT22;17437;47.188;8.896;2023-10-19T04:54:34;10.20;99.90
30678;DHT22;17437;47.188;8.896;2023-10-19T04:57:07;10.30;99.90
30678;DHT22;17437;47.188;8.896;2023-10-19T04:59:41;10.30;99.90
30678;DHT22;17437;47.188;8.896;2023-10-19T05:02:15;10.30;99.90
30678;DHT22;17437;47.188;8.896;2023-10-19T05:04:49;10.30;99.90
30678;DHT22;17437;47.188;8.896;2023-10-19T05:07:22;10.20;99.90
30678;DHT22;17437;47.188;8.896;2023-10-19T05:09:54;10.30;99.90
30678;DHT22;17437;47.188;8.896;2023-10-19T05:12:26;10.40;99.90
30678;DHT22;17437;47.188;8.896;2023-10-19T05:14:58;10.40;99.90
30678;DHT22;17437;47.188;8.896;2023-10-19T05:17:31;10.40;99.90
30678;DHT22;17437;47.188;8.896;2023-10-19T05:20:04;10.50;99.90
30678;DHT22;17437;47.188;8.896;2023-10-19T05:22:38;10.40;99.90
30678;DHT22;17437;47.188;8.896;2023-10-19T05:25:16;10.50;99.90
30678;DHT22;17437;47.188;8.896;2023-10-19T05:27:48;10.60;99.90
30678;DHT22;17437;47.188;8.896;2023-10-19T05:30:20;10.60;99.90
30678;DHT22;17437;47.188;8.896;2023-10-19T05:32:53;10.60;99.90
30678;DHT22;17437;47.188;8.896;2023-10-19T05:35:26;10.60;99.90
30678;DHT22;17437;47.188;8.896;2023-10-19T05:37:59;10.60;99.90
30678;DHT22;17437;47.188;8.896;2023-10-19T05:40:33;10.60;99.90
30678;DHT22;17437;47.188;8.896;2023-10-19T05:43:06;10.60;99.90
30678;DHT22;17437;47.188;8.896;2023-10-19T05:45:38;10.50;99.90
30678;DHT22;17437;47.188;8.896;2023-10-19T05:50:37;10.50;99.90
30678;DHT22;17437;47.188;8.896;2023-10-19T05:53:09;10.50;99.90
30678;DHT22;17437;47.188;8.896;2023-10-19T05:55:41;10.60;99.90
30678;DHT22;17437;47.188;8.896;2023-10-19T05:58:14;10.60;99.90
30678;DHT22;17437;47.188;8.896;2023-10-19T06:02:31;10.60;99.90
30678;DHT22;17437;47.188;8.896;2023-10-19T06:05:04;10.60;99.90
30678;DHT22;17437;47.188;8.896;2023-10-19T06:07:37;10.60;99.90
30678;DHT22;17437;47.188;8.896;2023-10-19T06:10:12;10.60;99.90
30678;DHT22;17437;47.188;8.896;2023-10-19T06:12:50;10.60;99.90
30678;DHT22;17437;47.188;8.896;2023-10-19T06:15:23;10.60;99.90
30678;DHT22;17437;47.188;8.896;2023-10-19T06:17:55;10.70;99.90
30678;DHT22;17437;47.188;8.896;2023-10-19T06:20:28;10.80;99.90
30678;DHT22;17437;47.188;8.896;2023-10-19T06:23:00;10.80;99.90
30678;DHT22;17437;47.188;8.896;2023-10-19T06:25:35;10.90;99.90
30678;DHT22;17437;47.188;8.896;2023-10-19T06:28:07;10.90;99.90
30678;DHT22;17437;47.188;8.896;2023-10-19T06:30:39;10.80;99.90
30678;DHT22;17437;47.188;8.896;2023-10-19T06:33:11;10.90;99.90
30678;DHT22;17437;47.188;8.896;2023-10-19T06:35:44;11.00;99.90
30678;DHT22;17437;47.188;8.896;2023-10-19T06:38:16;11.00;99.90
30678;DHT22;17437;47.188;8.896;2023-10-19T06:40:49;11.10;99.90
30678;DHT22;17437;47.188;8.896;2023-10-19T06:43:22;11.10;99.90
30678;DHT22;17437;47.188;8.896;2023-10-19T06:45:56;11.10;99.90
30678;DHT22;17437;47.188;8.896;2023-10-19T06:48:29;11.10;99.90
30678;DHT22;17437;47.188;8.896;2023-10-19T06:51:01;11.10;99.90
30678;DHT22;17437;47.188;8.896;2023-10-19T06:53:34;11.10;99.90
30678;DHT22;17437;47.188;8.896;2023-10-19T06:56:07;11.10;99.90
30678;DHT22;17437;47.188;8.896;2023-10-19T06:58:39;11.10;99.90
30678;DHT22;17437;47.188;8.896;2023-10-19T07:01:12;11.10;99.90
30678;DHT22;17437;47.188;8.896;2023-10-19T07:03:45;11.10;99.90
30678;DHT22;17437;47.188;8.896;2023-10-19T07:06:17;11.20;99.90
30678;DHT22;17437;47.188;8.896;2023-10-19T07:08:50;11.30;99.90
30678;DHT22;17437;47.188;8.896;2023-10-19T07:11:22;11.30;99.90
30678;DHT22;17437;47.188;8.896;2023-10-19T07:13:55;11.30;99.90
30678;DHT22;17437;47.188;8.896;2023-10-19T07:16:27;11.40;99.90
30678;DHT22;17437;47.188;8.896;2023-10-19T07:18:59;11.40;99.90
30678;DHT22;17437;47.188;8.896;2023-10-19T07:21:32;11.50;99.90
30678;DHT22;17437;47.188;8.896;2023-10-19T07:24:24;11.50;99.90
30678;DHT22;17437;47.188;8.896;2023-10-19T07:26:56;11.60;99.90
30678;DHT22;17437;47.188;8.896;2023-10-19T07:29:35;11.60;99.90
30678;DHT22;17437;47.188;8.896;2023-10-19T07:32:07;11.60;99.90
30678;DHT22;17437;47.188;8.896;2023-10-19T07:34:41;11.70;99.90
30678;DHT22;17437;47.188;8.896;2023-10-19T07:37:14;11.60;99.90
30678;DHT22;17437;47.188;8.896;2023-10-19T07:39:47;11.70;99.90
30678;DHT22;17437;47.188;8.896;2023-10-19T07:44:33;11.70;99.90
30678;DHT22;17437;47.188;8.896;2023-10-19T07:47:26;11.80;99.90
30678;DHT22;17437;47.188;8.896;2023-10-19T07:49:59;11.90;99.90
30678;DHT22;17437;47.188;8.896;2023-10-19T07:52:32;12.00;99.90
30678;DHT22;17437;47.188;8.896;2023-10-19T07:55:08;12.10;99.90
30678;DHT22;17437;47.188;8.896;2023-10-19T07:57:40;12.20;99.90
30678;DHT22;17437;47.188;8.896;2023-10-19T08:00:14;12.30;99.90
30678;DHT22;17437;47.188;8.896;2023-10-19T08:03:07;12.50;99.90
30678;DHT22;17437;47.188;8.896;2023-10-19T08:05:40;12.60;99.90
30678;DHT22;17437;47.188;8.896;2023-10-19T08:08:13;12.70;99.90
30678;DHT22;17437;47.188;8.896;2023-10-19T08:10:45;12.70;99.90
30678;DHT22;17437;47.188;8.896;2023-10-19T08:13:18;12.80;99.90
30678;DHT22;17437;47.188;8.896;2023-10-19T08:15:50;12.80;99.90
30678;DHT22;17437;47.188;8.896;2023-10-19T08:18:22;12.80;99.90
30678;DHT22;17437;47.188;8.896;2023-10-19T08:20:55;12.80;99.90
30678;DHT22;17437;47.188;8.896;2023-10-19T08:23:28;12.80;99.90
30678;DHT22;17437;47.188;8.896;2023-10-19T08:26:03;12.90;99.90
30678;DHT22;17437;47.188;8.896;2023-10-19T08:28:37;12.80;99.90
30678;DHT22;17437;47.188;8.896;2023-10-19T08:31:10;12.90;99.90
30678;DHT22;17437;47.188;8.896;2023-10-19T08:33:42;12.90;99.90
30678;DHT22;17437;47.188;8.896;2023-10-19T08:36:18;13.00;99.90
30678;DHT22;17437;47.188;8.896;2023-10-19T08:38:50;13.00;99.90
30678;DHT22;17437;47.188;8.896;2023-10-19T08:41:24;13.20;99.90
30678;DHT22;17437;47.188;8.896;2023-10-19T08:43:57;13.20;99.90
30678;DHT22;17437;47.188;8.896;2023-10-19T08:46:31;13.40;99.90
30678;DHT22;17437;47.188;8.896;2023-10-19T08:49:03;13.50;99.90
30678;DHT22;17437;47.188;8.896;2023-10-19T08:51:35;13.50;99.90
30678;DHT22;17437;47.188;8.896;2023-10-19T08:54:08;13.50;99.90
30678;DHT22;17437;47.188;8.896;2023-10-19T08:56:42;13.60;99.90
30678;DHT22;17437;47.188;8.896;2023-10-19T08:59:15;13.60;99.90
30678;DHT22;17437;47.188;8.896;2023-10-19T09:01:48;13.60;99.90
30678;DHT22;17437;47.188;8.896;2023-10-19T09:04:20;13.60;99.90
30678;DHT22;17437;47.188;8.896;2023-10-19T09:06:55;13.50;99.90
30678;DHT22;17437;47.188;8.896;2023-10-19T09:09:29;13.60;99.90
30678;DHT22;17437;47.188;8.896;2023-10-19T09:12:03;13.60;99.90
30678;DHT22;17437;47.188;8.896;2023-10-19T09:14:36;13.70;99.90
30678;DHT22;17437;47.188;8.896;2023-10-19T09:17:11;13.80;99.90
30678;DHT22;17437;47.188;8.896;2023-10-19T09:19:44;14.10;99.90
30678;DHT22;17437;47.188;8.896;2023-10-19T09:35:55;16.10;99.90
30678;DHT22;17437;47.188;8.896;2023-10-19T09:38:29;16.50;99.90
30678;DHT22;17437;47.188;8.896;2023-10-19T09:41:02;16.90;99.90
30678;DHT22;17437;47.188;8.896;2023-10-19T09:43:39;17.00;99.90
30678;DHT22;17437;47.188;8.896;2023-10-19T09:46:12;17.00;99.90
30678;DHT22;17437;47.188;8.896;2023-10-19T09:48:47;16.90;99.90
30678;DHT22;17437;47.188;8.896;2023-10-19T09:51:20;16.80;99.90
30678;DHT22;17437;47.188;8.896;2023-10-19T09:53:56;16.60;99.90
30678;DHT22;17437;47.188;8.896;2023-10-19T09:56:33;16.50;99.90
30678;DHT22;17437;47.188;8.896;2023-10-19T09:59:11;16.80;99.90
30678;DHT22;17437;47.188;8.896;2023-10-19T10:02:05;17.10;99.90
30678;DHT22;17437;47.188;8.896;2023-10-19T10:04:38;17.20;99.90
30678;DHT22;17437;47.188;8.896;2023-10-19T10:07:11;17.30;99.90
30678;DHT22;17437;47.188;8.896;2023-10-19T10:09:46;17.40;99.90
30678;DHT22;17437;47.188;8.896;2023-10-19T10:12:21;17.70;99.90
30678;DHT22;17437;47.188;8.896;2023-10-19T10:14:56;18.00;99.90
30678;DHT22;17437;47.188;8.896;2023-10-19T10:17:30;18.00;99.90
30678;DHT22;17437;47.188;8.896;2023-10-19T10:20:30;18.10;99.90
30678;DHT22;17437;47.188;8.896;2023-10-19T10:23:25;18.20;99.90
30678;DHT22;17437;47.188;8.896;2023-10-19T10:26:01;18.30;99.90
30678;DHT22;17437;47.188;8.896;2023-10-19T10:28:35;18.50;99.90
30678;DHT22;17437;47.188;8.896;2023-10-19T10:31:11;18.70;99.90
30678;DHT22;17437;47.188;8.896;2023-10-19T10:33:48;19.00;99.90
30678;DHT22;17437;47.188;8.896;2023-10-19T10:36:22;19.30;99.90
30678;DHT22;17437;47.188;8.896;2023-10-19T10:39:01;19.60;99.90
30678;DHT22;17437;47.188;8.896;2023-10-19T10:41:31;19.70;99.90
30678;DHT22;17437;47.188;8.896;2023-10-19T10:44:05;19.80;99.90
30678;DHT22;17437;47.188;8.896;2023-10-19T10:46:37;20.00;99.90
30678;DHT22;17437;47.188;8.896;2023-10-19T10:49:11;20.10;99.90
30678;DHT22;17437;47.188;8.896;2023-10-19T10:51:45;20.10;99.90
30678;DHT22;17437;47.188;8.896;2023-10-19T10:54:21;20.10;99.90
30678;DHT22;17437;47.188;8.896;2023-10-19T10:56:53;20.20;99.90
30678;DHT22;17437;47.188;8.896;2023-10-19T10:59:26;20.10;99.90
30678;DHT22;17437;47.188;8.896;2023-10-19T11:01:58;20.10;99.90
30678;DHT22;17437;47.188;8.896;2023-10-19T11:04:30;20.10;99.90
30678;DHT22;17437;47.188;8.896;2023-10-19T11:07:04;20.10;99.90
30678;DHT22;17437;47.188;8.896;2023-10-19T11:09:45;20.30;99.90
30678;DHT22;17437;47.188;8.896;2023-10-19T11:12:17;20.30;99.90
30678;DHT22;17437;47.188;8.896;2023-10-19T11:14:54;20.30;99.90
30678;DHT22;17437;47.188;8.896;2023-10-19T11:17:29;20.40;99.90
30678;DHT22;17437;47.188;8.896;2023-10-19T11:20:02;20.50;99.90
30678;DHT22;17437;47.188;8.896;2023-10-19T11:22:37;20.50;99.90
30678;DHT22;17437;47.188;8.896;2023-10-19T11:25:21;20.60;99.90
30678;DHT22;17437;47.188;8.896;2023-10-19T11:27:53;20.80;99.90
30678;DHT22;17437;47.188;8.896;2023-10-19T11:30:30;21.10;99.90
30678;DHT22;17437;47.188;8.896;2023-10-19T11:33:03;21.30;99.90
30678;DHT22;17437;47.188;8.896;2023-10-19T11:35:36;21.40;99.90
30678;DHT22;17437;47.188;8.896;2023-10-19T11:38:09;21.30;99.90
30678;DHT22;17437;47.188;8.896;2023-10-19T11:40:41;21.10;99.90
30678;DHT22;17437;47.188;8.896;2023-10-19T11:43:13;20.80;99.90
30678;DHT22;17437;47.188;8.896;2023-10-19T11:45:45;20.50;99.90
30678;DHT22;17437;47.188;8.896;2023-10-19T11:48:17;20.20;99.90
30678;DHT22;17437;47.188;8.896;2023-10-19T11:50:49;20.10;99.90
30678;DHT22;17437;47.188;8.896;2023-10-19T11:53:21;20.00;99.90
30678;DHT22;17437;47.188;8.896;2023-10-19T11:55:53;20.00;99.90
30678;DHT22;17437;47.188;8.896;2023-10-19T11:58:25;20.10;99.90
30678;DHT22;17437;47.188;8.896;2023-10-19T12:00:57;20.10;99.90
30678;DHT22;17437;47.188;8.896;2023-10-19T12:03:30;20.00;99.90
30678;DHT22;17437;47.188;8.896;2023-10-19T12:06:02;20.20;99.90
30678;DHT22;17437;47.188;8.896;2023-10-19T12:08:36;20.20;99.90
30678;DHT22;17437;47.188;8.896;2023-10-19T12:11:09;20.40;99.90
30678;DHT22;17437;47.188;8.896;2023-10-19T12:13:44;20.50;99.90
30678;DHT22;17437;47.188;8.896;2023-10-19T12:16:17;20.40;99.90
30678;DHT22;17437;47.188;8.896;2023-10-19T12:18:51;20.40;99.90
30678;DHT22;17437;47.188;8.896;2023-10-19T12:21:23;20.40;99.90
30678;DHT22;17437;47.188;8.896;2023-10-19T12:23:56;20.50;99.90
30678;DHT22;17437;47.188;8.896;2023-10-19T12:26:30;20.50;99.90
30678;DHT22;17437;47.188;8.896;2023-10-19T12:29:03;20.50;99.90
30678;DHT22;17437;47.188;8.896;2023-10-19T12:31:36;20.40;99.90
30678;DHT22;17437;47.188;8.896;2023-10-19T12:34:11;20.30;99.90
30678;DHT22;17437;47.188;8.896;2023-10-19T12:36:43;20.30;99.90
30678;DHT22;17437;47.188;8.896;2023-10-19T12:39:17;20.30;99.90
30678;DHT22;17437;47.188;8.896;2023-10-19T12:42:06;20.40;99.90
30678;DHT22;17437;47.188;8.896;2023-10-19T12:44:39;20.50;99.90
30678;DHT22;17437;47.188;8.896;2023-10-19T12:47:13;20.60;99.90
30678;DHT22;17437;47.188;8.896;2023-10-19T12:49:47;20.50;99.90
30678;DHT22;17437;47.188;8.896;2023-10-19T12:52:20;20.50;99.90
30678;DHT22;17437;47.188;8.896;2023-10-19T12:54:53;20.50;99.90
30678;DHT22;17437;47.188;8.896;2023-10-19T12:57:27;20.60;99.90
30678;DHT22;17437;47.188;8.896;2023-10-19T13:00:00;20.60;99.90
30678;DHT22;17437;47.188;8.896;2023-10-19T13:02:34;20.60;99.90
30678;DHT22;17437;47.188;8.896;2023-10-19T13:05:08;20.60;99.90
30678;DHT22;17437;47.188;8.896;2023-10-19T13:07:42;20.50;99.90
30678;DHT22;17437;47.188;8.896;2023-10-19T13:10:14;20.40;99.90
30678;DHT22;17437;47.188;8.896;2023-10-19T13:12:46;20.30;99.90
30678;DHT22;17437;47.188;8.896;2023-10-19T13:15:18;20.10;99.90
30678;DHT22;17437;47.188;8.896;2023-10-19T13:17:51;20.00;99.90
30678;DHT22;17437;47.188;8.896;2023-10-19T13:20:23;20.10;99.90
30678;DHT22;17437;47.188;8.896;2023-10-19T13:22:56;20.40;99.90
30678;DHT22;17437;47.188;8.896;2023-10-19T13:25:30;21.00;99.90
30678;DHT22;17437;47.188;8.896;2023-10-19T13:28:15;21.70;99.90
30678;DHT22;17437;47.188;8.896;2023-10-19T13:30:49;21.70;99.90
30678;DHT22;17437;47.188;8.896;2023-10-19T13:33:22;21.50;99.90
30678;DHT22;17437;47.188;8.896;2023-10-19T13:35:55;21.60;99.90
30678;DHT22;17437;47.188;8.896;2023-10-19T13:38:27;21.70;99.90
30678;DHT22;17437;47.188;8.896;2023-10-19T13:40:59;21.90;99.90
30678;DHT22;17437;47.188;8.896;2023-10-19T13:43:33;21.90;99.90
30678;DHT22;17437;47.188;8.896;2023-10-19T13:46:07;21.60;99.90
30678;DHT22;17437;47.188;8.896;2023-10-19T13:48:39;21.20;99.90
30678;DHT22;17437;47.188;8.896;2023-10-19T13:51:15;20.90;99.90
30678;DHT22;17437;47.188;8.896;2023-10-19T13:53:46;20.60;99.90
30678;DHT22;17437;47.188;8.896;2023-10-19T13:56:20;20.50;99.90
30678;DHT22;17437;47.188;8.896;2023-10-19T13:58:53;20.40;99.90
30678;DHT22;17437;47.188;8.896;2023-10-19T14:01:28;20.50;99.90
30678;DHT22;17437;47.188;8.896;2023-10-19T14:04:00;20.40;99.90
30678;DHT22;17437;47.188;8.896;2023-10-19T14:06:33;21.00;99.90
30678;DHT22;17437;47.188;8.896;2023-10-19T14:09:05;22.00;99.90
30678;DHT22;17437;47.188;8.896;2023-10-19T14:11:38;22.60;99.90
30678;DHT22;17437;47.188;8.896;2023-10-19T14:14:10;23.30;99.90
30678;DHT22;17437;47.188;8.896;2023-10-19T14:16:42;23.00;99.90
30678;DHT22;17437;47.188;8.896;2023-10-19T14:19:15;22.60;99.90
30678;DHT22;17437;47.188;8.896;2023-10-19T14:24:33;22.90;99.90
30678;DHT22;17437;47.188;8.896;2023-10-19T14:27:05;23.40;99.90
30678;DHT22;17437;47.188;8.896;2023-10-19T14:29:39;23.30;99.90
30678;DHT22;17437;47.188;8.896;2023-10-19T14:32:11;23.40;99.90
30678;DHT22;17437;47.188;8.896;2023-10-19T14:34:43;24.20;99.90
30678;DHT22;17437;47.188;8.896;2023-10-19T14:37:15;25.60;99.90
30678;DHT22;17437;47.188;8.896;2023-10-19T14:39:48;26.20;99.90
30678;DHT22;17437;47.188;8.896;2023-10-19T14:42:20;27.00;99.90
30678;DHT22;17437;47.188;8.896;2023-10-19T14:44:52;27.70;99.90
30678;DHT22;17437;47.188;8.896;2023-10-19T14:47:24;28.60;99.90
30678;DHT22;17437;47.188;8.896;2023-10-19T14:49:57;29.40;99.90
30678;DHT22;17437;47.188;8.896;2023-10-19T14:52:29;30.30;99.90
30678;DHT22;17437;47.188;8.896;2023-10-19T14:55:02;30.80;99.90
30678;DHT22;17437;47.188;8.896;2023-10-19T14:57:36;31.10;99.80
30678;DHT22;17437;47.188;8.896;2023-10-19T15:00:11;31.10;98.20
30678;DHT22;17437;47.188;8.896;2023-10-19T15:02:46;30.20;97.60
30678;DHT22;17437;47.188;8.896;2023-10-19T15:05:20;29.20;98.60
30678;DHT22;17437;47.188;8.896;2023-10-19T15:07:53;28.10;99.80
30678;DHT22;17437;47.188;8.896;2023-10-19T15:10:27;26.70;99.90
30678;DHT22;17437;47.188;8.896;2023-10-19T15:13:00;25.60;99.90
30678;DHT22;17437;47.188;8.896;2023-10-19T15:15:33;24.40;99.90
30678;DHT22;17437;47.188;8.896;2023-10-19T15:18:07;23.30;99.90
30678;DHT22;17437;47.188;8.896;2023-10-19T15:20:39;22.50;99.90
30678;DHT22;17437;47.188;8.896;2023-10-19T15:23:12;21.80;99.90
30678;DHT22;17437;47.188;8.896;2023-10-19T15:25:45;21.20;99.90
30678;DHT22;17437;47.188;8.896;2023-10-19T15:28:17;20.80;99.90
30678;DHT22;17437;47.188;8.896;2023-10-19T15:30:51;20.40;99.90
30678;DHT22;17437;47.188;8.896;2023-10-19T15:33:24;20.00;99.90
30678;DHT22;17437;47.188;8.896;2023-10-19T15:35:57;19.70;99.90
30678;DHT22;17437;47.188;8.896;2023-10-19T15:38:29;19.40;99.90
30678;DHT22;17437;47.188;8.896;2023-10-19T15:41:02;19.20;99.90
30678;DHT22;17437;47.188;8.896;2023-10-19T15:43:34;19.10;99.90
30678;DHT22;17437;47.188;8.896;2023-10-19T15:46:07;19.00;99.90
30678;DHT22;17437;47.188;8.896;2023-10-19T15:48:40;18.90;99.90
30678;DHT22;17437;47.188;8.896;2023-10-19T15:51:13;18.80;99.90
30678;DHT22;17437;47.188;8.896;2023-10-19T15:53:45;18.70;99.90
30678;DHT22;17437;47.188;8.896;2023-10-19T15:56:17;18.60;99.90
30678;DHT22;17437;47.188;8.896;2023-10-19T15:58:49;18.50;99.90
30678;DHT22;17437;47.188;8.896;2023-10-19T16:01:22;18.20;99.90
30678;DHT22;17437;47.188;8.896;2023-10-19T16:03:56;18.10;99.90
30678;DHT22;17437;47.188;8.896;2023-10-19T16:06:29;17.90;99.90
30678;DHT22;17437;47.188;8.896;2023-10-19T16:09:03;17.90;99.90
30678;DHT22;17437;47.188;8.896;2023-10-19T16:11:36;17.70;99.90
30678;DHT22;17437;47.188;8.896;2023-10-19T16:14:10;17.60;99.90
30678;DHT22;17437;47.188;8.896;2023-10-19T16:16:42;17.60;99.90
30678;DHT22;17437;47.188;8.896;2023-10-19T16:19:15;17.50;99.90
30678;DHT22;17437;47.188;8.896;2023-10-19T16:21:48;17.30;99.90
30678;DHT22;17437;47.188;8.896;2023-10-19T16:24:20;17.20;99.90
30678;DHT22;17437;47.188;8.896;2023-10-19T16:26:53;17.20;99.90
30678;DHT22;17437;47.188;8.896;2023-10-19T16:29:27;17.10;99.90
30678;DHT22;17437;47.188;8.896;2023-10-19T16:31:59;17.00;99.90
30678;DHT22;17437;47.188;8.896;2023-10-19T16:34:31;17.00;99.90
30678;DHT22;17437;47.188;8.896;2023-10-19T16:37:03;16.90;99.90
30678;DHT22;17437;47.188;8.896;2023-10-19T16:39:35;16.90;99.90
30678;DHT22;17437;47.188;8.896;2023-10-19T16:42:07;16.80;99.90